Time;durP1;ratioP1;P1;durP2;ratioP2;P2;SDS_P1;SDS_P2;PMS_P1;PMS_P2;Temp;Humidity;BMP_temperature;BMP_pressure;BME280_temperature;BME280_humidity;BME280_pressure;Samples;Min_cycle;Max_cycle;Signal;HPM_P1;HPM_P2
2022/08/13 00:01:37;;;;;;;2.10;1.50;;;21.00;23.00;;;;;;10389979;28;20249;-76
2022/08/13 00:17:49;;;;;;;1.80;1.70;;;20.90;23.80;;;;;;10393581;28;20237;-77
2022/08/13 00:23:09;;;;;;;1.60;1.50;;;20.80;23.70;;;;;;10396010;28;20241;-77
2022/08/13 00:28:25;;;;;;;1.57;1.47;;;20.80;23.70;;;;;;10396528;28;20243;-77
2022/08/13 00:33:30;;;;;;;1.70;1.60;;;20.70;23.60;;;;;;10398857;28;20221;-76
2022/08/13 00:38:52;;;;;;;2.00;1.50;;;20.70;23.60;;;;;;10402597;28;20234;-77
2022/08/13 00:43:59;;;;;;;1.83;1.73;;;20.70;23.40;;;;;;10397754;28;20226;-77
2022/08/13 00:49:04;;;;;;;1.57;1.47;;;20.60;23.50;;;;;;10396992;28;20213;-76
2022/08/13 00:54:09;;;;;;;1.30;1.30;;;20.50;23.90;;;;;;10399176;28;20234;-76
2022/08/13 00:59:14;;;;;;;1.60;1.50;;;20.40;23.70;;;;;;10392212;28;20687;-77
2022/08/13 01:04:21;;;;;;;1.33;1.33;;;20.40;23.70;;;;;;10400714;28;20236;-77
2022/08/13 01:09:30;;;;;;;3.47;1.80;;;20.30;24.50;;;;;;10397322;28;20241;-77
2022/08/13 01:14:55;;;;;;;1.87;1.70;;;20.20;24.20;;;;;;10401379;28;20703;-76
2022/08/13 01:20:00;;;;;;;2.00;1.80;;;20.10;24.20;;;;;;10395905;28;20304;-76
2022/08/13 01:25:07;;;;;;;1.70;1.60;;;20.00;24.60;;;;;;10398924;28;20718;-76
2022/08/13 01:30:14;;;;;;;1.87;1.77;;;19.90;24.80;;;;;;10397351;28;20236;-76
2022/08/13 01:35:20;;;;;;;1.73;1.63;;;19.70;24.60;;;;;;10397272;28;20313;-76
2022/08/13 01:40:25;;;;;;;2.17;1.50;;;19.60;24.70;;;;;;10399872;28;20606;-76
2022/08/13 01:45:31;;;;;;;1.70;1.60;;;19.60;25.00;;;;;;10395876;28;20320;-76
2022/08/13 01:50:37;;;;;;;2.23;1.57;;;19.50;25.00;;;;;;10396790;28;20564;-77
2022/08/13 01:55:45;;;;;;;1.60;1.50;;;19.40;24.90;;;;;;10398115;28;20209;-76
2022/08/13 02:01:08;;;;;;;1.93;1.83;;;19.40;25.00;;;;;;10394536;28;20236;-77
2022/08/13 02:06:12;;;;;;;1.83;1.73;;;19.30;24.80;;;;;;10403083;28;20726;-76
2022/08/13 02:11:31;;;;;;;1.60;1.50;;;19.20;24.80;;;;;;10394513;28;20241;-76
2022/08/13 02:16:37;;;;;;;1.77;1.67;;;19.20;25.30;;;;;;10391853;28;20219;-76
2022/08/13 02:21:44;;;;;;;1.73;1.63;;;19.20;25.40;;;;;;10396905;28;20229;-76
2022/08/13 02:26:49;;;;;;;1.80;1.70;;;19.10;25.20;;;;;;10395104;28;20264;-76
2022/08/13 02:31:57;;;;;;;1.73;1.63;;;19.00;25.50;;;;;;10397724;28;20217;-76
2022/08/13 02:37:21;;;;;;;1.67;1.57;;;19.00;25.20;;;;;;10396418;28;20245;-76
2022/08/13 02:42:46;;;;;;;1.80;1.70;;;18.90;25.50;;;;;;10395183;28;20244;-76
2022/08/13 02:47:51;;;;;;;1.93;1.83;;;18.80;25.70;;;;;;10393878;28;20237;-76
2022/08/13 02:52:55;;;;;;;2.03;1.93;;;18.80;25.60;;;;;;10382070;28;20229;-76
2022/08/13 02:58:03;;;;;;;1.90;1.80;;;18.80;25.80;;;;;;10378668;28;20228;-76
2022/08/13 03:03:08;;;;;;;1.83;1.73;;;18.80;26.20;;;;;;10392957;28;20226;-76
2022/08/13 03:08:13;;;;;;;1.77;1.67;;;18.70;25.80;;;;;;10392855;28;20229;-76
2022/08/13 03:13:43;;;;;;;1.90;1.80;;;18.60;25.80;;;;;;10394241;28;20225;-76
2022/08/13 03:18:48;;;;;;;2.40;1.90;;;18.50;26.80;;;;;;10389378;28;20232;-76
2022/08/13 03:23:55;;;;;;;3.20;2.27;;;18.40;26.10;;;;;;10393878;28;20248;-76
2022/08/13 03:29:02;;;;;;;1.73;1.63;;;18.30;26.10;;;;;;10388425;28;20312;-76
2022/08/13 03:34:06;;;;;;;2.33;2.13;;;18.10;26.80;;;;;;10394501;28;20706;-76
2022/08/13 03:39:09;;;;;;;1.80;1.70;;;18.00;26.50;;;;;;10394480;28;20245;-76
2022/08/13 03:44:18;;;;;;;3.33;2.20;;;17.90;26.50;;;;;;10392857;28;20257;-76
2022/08/13 03:49:31;;;;;;;2.00;1.90;;;17.80;27.10;;;;;;10391066;28;20325;-76
2022/08/13 03:54:34;;;;;;;1.80;1.70;;;17.80;26.70;;;;;;10390471;28;20236;-76
2022/08/13 03:59:38;;;;;;;1.90;1.80;;;17.70;26.80;;;;;;10390050;28;20222;-76
2022/08/13 04:04:51;;;;;;;2.10;1.90;;;17.70;27.20;;;;;;10399169;28;20225;-76
2022/08/13 04:09:54;;;;;;;2.00;1.90;;;17.70;27.10;;;;;;10393986;28;20317;-76
2022/08/13 04:14:59;;;;;;;1.90;1.80;;;17.70;27.10;;;;;;10400186;28;20241;-75
2022/08/13 04:20:05;;;;;;;2.97;2.10;;;17.70;27.40;;;;;;10394268;28;20677;-75
2022/08/13 04:25:13;;;;;;;2.30;2.10;;;17.60;27.00;;;;;;10396818;28;20245;-75
2022/08/13 04:30:35;;;;;;;2.00;1.90;;;17.50;27.10;;;;;;10397695;28;20283;-75
2022/08/13 04:35:45;;;;;;;2.30;2.10;;;17.50;27.40;;;;;;10397846;28;20232;-75
2022/08/13 04:41:01;;;;;;;2.40;2.20;;;17.50;27.20;;;;;;10397250;28;20652;-75
2022/08/13 04:46:07;;;;;;;2.97;2.43;;;17.40;27.30;;;;;;10397535;28;20814;-76
2022/08/13 04:51:11;;;;;;;2.20;2.00;;;17.30;28.10;;;;;;10398161;28;20233;-75
2022/08/13 04:56:18;;;;;;;2.20;2.10;;;17.30;27.60;;;;;;10397446;28;20279;-75
2022/08/13 05:01:23;;;;;;;3.03;1.90;;;17.30;27.80;;;;;;10395435;28;20708;-75
2022/08/13 05:06:46;;;;;;;2.27;1.90;;;17.20;28.30;;;;;;10397367;28;20213;-75
2022/08/13 05:11:55;;;;;;;5.23;2.33;;;17.20;27.90;;;;;;10392604;28;20229;-75
2022/08/13 05:17:09;;;;;;;2.37;2.00;;;17.20;28.10;;;;;;10394700;28;20313;-76
2022/08/13 05:22:16;;;;;;;2.63;2.20;;;17.20;28.70;;;;;;10394491;28;20584;-75
2022/08/13 05:27:32;;;;;;;2.30;2.20;;;17.20;28.40;;;;;;10394605;28;20237;-76
2022/08/13 05:32:44;;;;;;;5.90;2.20;;;17.30;28.80;;;;;;10396584;28;20754;-76
2022/08/13 05:37:53;;;;;;;3.27;2.27;;;17.40;29.30;;;;;;10396844;28;20668;-76
2022/08/13 05:43:19;;;;;;;3.10;2.10;;;17.40;28.90;;;;;;10388155;28;20641;-76
2022/08/13 05:48:24;;;;;;;2.90;2.53;;;17.40;29.40;;;;;;10397079;28;20685;-77
2022/08/13 05:53:32;;;;;;;2.63;2.43;;;17.50;29.60;;;;;;10392256;28;20597;-76
2022/08/13 05:58:55;;;;;;;3.03;2.53;;;17.60;29.70;;;;;;10395545;28;20226;-76
2022/08/13 06:04:00;;;;;;;2.30;2.10;;;17.70;29.60;;;;;;10390992;28;20221;-76
2022/08/13 06:09:25;;;;;;;3.60;2.50;;;17.70;29.90;;;;;;10384825;28;20225;-76
2022/08/13 06:14:35;;;;;;;2.67;2.47;;;17.70;29.80;;;;;;10395404;28;20226;-76
2022/08/13 06:19:44;;;;;;;3.30;2.70;;;17.90;29.90;;;;;;10384526;28;20514;-77
2022/08/13 06:24:52;;;;;;;3.47;2.77;;;18.00;31.00;;;;;;10394622;28;20299;-76
2022/08/13 06:29:59;;;;;;;2.93;2.63;;;18.10;30.20;;;;;;10393798;28;20311;-76
2022/08/13 06:35:05;;;;;;;2.80;2.50;;;18.20;30.50;;;;;;10392819;28;20228;-77
2022/08/13 06:40:14;;;;;;;2.80;2.47;;;18.40;31.30;;;;;;10392389;28;20222;-77
2022/08/13 06:45:36;;;;;;;3.30;2.60;;;18.50;31.10;;;;;;10393943;28;20283;-77
2022/08/13 06:50:46;;;;;;;2.70;2.50;;;18.70;31.20;;;;;;10393543;28;20222;-77
2022/08/13 06:55:51;;;;;;;2.50;2.40;;;18.90;32.00;;;;;;10389032;28;20871;-77
2022/08/13 07:01:18;;;;;;;3.10;2.90;;;19.10;31.70;;;;;;10393074;28;20226;-77
2022/08/13 07:06:26;;;;;;;2.67;2.47;;;19.30;32.10;;;;;;10389819;28;20261;-77
2022/08/13 07:11:32;;;;;;;2.80;2.60;;;19.50;32.00;;;;;;10387161;28;20230;-77
2022/08/13 07:16:44;;;;;;;2.80;2.60;;;19.80;31.40;;;;;;10387768;28;20226;-77
2022/08/13 07:21:49;;;;;;;2.80;2.50;;;20.00;31.30;;;;;;10391133;28;20230;-77
2022/08/13 07:26:59;;;;;;;2.90;2.33;;;20.30;31.50;;;;;;10387204;28;20273;-77
2022/08/13 07:32:06;;;;;;;2.73;2.53;;;20.40;30.90;;;;;;10390996;28;20229;-77
2022/08/13 07:37:19;;;;;;;3.10;2.30;;;20.70;31.00;;;;;;10393652;28;20275;-77
2022/08/13 07:42:25;;;;;;;2.93;2.60;;;20.90;31.70;;;;;;10395978;28;20229;-77
2022/08/13 07:47:34;;;;;;;2.60;2.40;;;21.10;30.70;;;;;;10402103;28;20236;-77
2022/08/13 07:52:59;;;;;;;2.63;2.43;;;21.40;30.50;;;;;;10394280;28;20231;-77
2022/08/13 07:58:03;;;;;;;2.57;2.37;;;21.60;30.80;;;;;;10400659;28;20935;-77
2022/08/13 08:03:07;;;;;;;2.50;2.30;;;21.90;30.30;;;;;;10395640;28;20234;-77
2022/08/13 08:08:13;;;;;;;3.00;2.70;;;22.20;30.10;;;;;;10399348;28;20726;-77
2022/08/13 08:13:32;;;;;;;2.30;2.20;;;22.40;30.00;;;;;;10401852;28;20226;-77
2022/08/13 08:18:37;;;;;;;2.50;2.30;;;22.70;29.90;;;;;;10394093;28;20237;-77
2022/08/13 08:24:04;;;;;;;2.50;2.30;;;23.00;29.80;;;;;;10400298;28;20251;-77
2022/08/13 08:29:25;;;;;;;2.60;2.50;;;23.30;29.40;;;;;;10394360;28;20309;-77
2022/08/13 08:34:37;;;;;;;2.70;2.50;;;23.60;29.30;;;;;;10393932;28;20237;-77
2022/08/13 08:45:08;;;;;;;2.93;2.40;;;24.10;28.80;;;;;;10393175;28;20647;-77
2022/08/13 08:50:19;;;;;;;2.47;2.37;;;24.50;28.50;;;;;;10393822;28;20237;-77
2022/08/13 08:55:35;;;;;;;2.33;2.23;;;24.70;28.50;;;;;;10395066;28;20233;-77
2022/08/13 09:00:59;;;;;;;2.23;2.03;;;24.90;28.20;;;;;;10393366;28;20707;-76
2022/08/13 09:06:02;;;;;;;2.20;2.10;;;25.20;28.10;;;;;;10393434;28;20228;-76
2022/08/13 09:11:25;;;;;;;2.63;2.43;;;25.50;27.90;;;;;;10398568;28;20238;-76
2022/08/13 09:16:31;;;;;;;2.13;2.03;;;25.70;27.20;;;;;;10392926;28;20325;-75
2022/08/13 09:21:40;;;;;;;2.40;2.20;;;26.00;27.00;;;;;;10392655;28;20257;-76
2022/08/13 09:26:47;;;;;;;2.50;2.30;;;26.20;27.20;;;;;;10395347;28;20325;-76
2022/08/13 09:32:05;;;;;;;3.63;2.33;;;26.40;26.60;;;;;;10392627;28;20244;-76
2022/08/13 09:37:11;;;;;;;2.13;2.00;;;26.70;26.50;;;;;;10393696;28;20276;-75
2022/08/13 09:42:23;;;;;;;1.80;1.70;;;26.90;26.10;;;;;;10383661;28;20234;-75
2022/08/13 09:47:28;;;;;;;2.00;1.90;;;27.20;24.70;;;;;;10391068;28;20225;-76
2022/08/13 09:52:53;;;;;;;2.70;1.90;;;27.50;25.30;;;;;;10398869;28;20228;-76
2022/08/13 09:57:59;;;;;;;1.70;1.60;;;27.80;24.70;;;;;;10392839;28;20237;-76
2022/08/13 10:03:07;;;;;;;1.90;1.80;;;28.10;23.90;;;;;;10397753;28;20744;-76
2022/08/13 10:08:16;;;;;;;2.17;2.03;;;28.30;23.50;;;;;;10391361;28;20234;-76
2022/08/13 10:13:22;;;;;;;1.90;1.80;;;28.50;22.30;;;;;;10400980;28;20711;-76
2022/08/13 10:18:46;;;;;;;1.90;1.80;;;28.70;22.70;;;;;;10397867;28;20589;-76
2022/08/13 10:23:51;;;;;;;2.00;1.90;;;28.80;22.90;;;;;;10395390;28;20261;-76
2022/08/13 10:28:56;;;;;;;2.23;2.13;;;29.00;22.60;;;;;;10392164;28;20219;-76
2022/08/13 10:33:59;;;;;;;2.13;1.90;;;29.10;21.70;;;;;;10393516;28;20264;-76
2022/08/13 10:39:04;;;;;;;2.30;2.20;;;29.20;21.90;;;;;;10391270;28;20225;-76
2022/08/13 10:44:14;;;;;;;2.23;2.00;;;29.30;20.80;;;;;;10391609;28;20251;-76
2022/08/13 10:49:29;;;;;;;2.13;2.03;;;29.40;21.10;;;;;;10393607;28;20250;-76
2022/08/13 10:54:35;;;;;;;1.90;1.80;;;29.50;21.50;;;;;;10387467;28;20218;-76
2022/08/13 10:59:43;;;;;;;2.80;2.07;;;29.60;20.90;;;;;;10393325;28;20309;-77
2022/08/13 11:04:46;;;;;;;2.30;2.10;;;29.70;20.20;;;;;;10386314;28;20257;-76
2022/08/13 11:09:54;;;;;;;1.77;1.67;;;29.80;21.00;;;;;;10390463;28;20598;-76
2022/08/13 11:14:59;;;;;;;2.07;1.97;;;29.80;20.70;;;;;;10396210;28;20313;-76
2022/08/13 11:20:06;;;;;;;1.90;1.80;;;29.90;19.90;;;;;;10386711;28;20232;-76
2022/08/13 11:25:12;;;;;;;1.93;1.83;;;29.90;20.20;;;;;;10392666;28;20240;-76
2022/08/13 11:30:36;;;;;;;1.93;1.83;;;29.90;20.00;;;;;;10389758;28;20237;-76
2022/08/13 11:35:39;;;;;;;2.03;1.93;;;30.00;19.00;;;;;;10383883;28;20241;-76
2022/08/13 11:40:53;;;;;;;1.90;1.80;;;30.10;19.40;;;;;;10390191;28;20254;-76
2022/08/13 11:45:59;;;;;;;1.93;1.83;;;30.20;18.70;;;;;;10387824;28;20229;-76
2022/08/13 11:51:02;;;;;;;2.27;1.90;;;30.30;18.50;;;;;;10388697;28;20312;-75
2022/08/13 11:56:07;;;;;;;2.10;2.00;;;30.30;18.50;;;;;;10385792;28;20309;-76
2022/08/13 12:01:16;;;;;;;2.43;1.83;;;30.40;18.40;;;;;;10389685;28;20320;-76
2022/08/13 12:06:27;;;;;;;2.97;2.70;;;30.40;17.80;;;;;;10389391;28;20317;-76
2022/08/13 12:11:34;;;;;;;2.20;2.10;;;30.40;18.90;;;;;;10385913;28;20317;-76
2022/08/13 12:16:59;;;;;;;1.90;1.80;;;30.40;18.60;;;;;;10390151;28;20226;-76
2022/08/13 12:22:04;;;;;;;3.87;2.07;;;30.40;18.00;;;;;;10391593;28;20228;-76
2022/08/13 12:27:09;;;;;;;2.10;2.00;;;30.40;18.30;;;;;;10396229;28;20261;-76
2022/08/13 12:32:14;;;;;;;2.10;2.00;;;30.40;18.70;;;;;;10393828;28;20229;-76
2022/08/13 12:37:17;;;;;;;1.80;1.70;;;30.40;17.50;;;;;;10395678;28;20234;-77
2022/08/13 12:42:27;;;;;;;2.03;1.93;;;30.40;17.60;;;;;;10390643;28;20234;-76
2022/08/13 12:47:32;;;;;;;1.90;1.80;;;30.50;17.40;;;;;;10397865;28;20229;-76
2022/08/13 12:52:35;;;;;;;2.00;1.90;;;30.60;16.90;;;;;;10392467;28;20226;-76
2022/08/13 12:57:39;;;;;;;1.80;1.70;;;30.60;16.90;;;;;;10391634;28;20233;-76
2022/08/13 13:03:03;;;;;;;1.80;1.70;;;30.70;16.80;;;;;;10398213;28;20939;-76
2022/08/13 13:08:18;;;;;;;2.10;2.00;;;30.70;16.20;;;;;;10390597;28;21161;-76
2022/08/13 13:13:35;;;;;;;1.83;1.73;;;30.80;16.50;;;;;;10397788;28;20332;-76
2022/08/13 13:19:00;;;;;;;1.80;1.70;;;30.90;16.50;;;;;;10392811;28;20691;-77
2022/08/13 13:24:05;;;;;;;1.80;1.70;;;30.90;16.00;;;;;;10390115;28;20320;-76
2022/08/13 13:29:21;;;;;;;1.90;1.80;;;30.90;16.00;;;;;;10385849;28;20240;-76
2022/08/13 13:34:25;;;;;;;1.90;1.70;;;31.00;16.00;;;;;;10396535;28;20229;-76
2022/08/13 13:39:28;;;;;;;1.90;1.70;;;31.00;15.70;;;;;;10396695;28;20233;-76
2022/08/13 13:44:45;;;;;;;2.00;1.90;;;31.00;16.00;;;;;;10395713;28;20241;-76
2022/08/13 13:49:52;;;;;;;1.70;1.60;;;31.00;15.80;;;;;;10399296;28;21640;-76
2022/08/13 13:54:56;;;;;;;2.00;1.90;;;31.00;15.50;;;;;;10394729;28;20689;-76
2022/08/13 14:00:01;;;;;;;2.00;1.90;;;31.00;15.70;;;;;;10395875;28;20233;-76
2022/08/13 14:05:07;;;;;;;1.87;1.77;;;31.00;15.20;;;;;;10396245;28;20285;-76
2022/08/13 14:10:24;;;;;;;1.70;1.60;;;30.90;14.70;;;;;;10391221;28;20238;-76
2022/08/13 14:15:32;;;;;;;2.03;1.90;;;31.00;15.20;;;;;;10392868;28;20256;-76
2022/08/13 14:20:40;;;;;;;2.13;2.00;;;31.00;14.80;;;;;;10395214;28;20759;-76
2022/08/13 14:25:47;;;;;;;1.90;1.80;;;31.00;15.30;;;;;;10395717;28;20226;-76
2022/08/13 14:30:59;;;;;;;1.60;1.60;;;31.00;14.40;;;;;;10394321;28;20228;-76
2022/08/13 14:36:04;;;;;;;2.00;1.90;;;31.00;14.80;;;;;;10390230;28;20649;-76
2022/08/13 14:41:09;;;;;;;2.00;1.90;;;31.10;14.40;;;;;;10395376;28;20229;-76
2022/08/13 14:46:20;;;;;;;2.33;2.13;;;31.10;14.60;;;;;;10394858;28;20707;-76
2022/08/13 14:51:28;;;;;;;1.90;1.80;;;31.20;14.80;;;;;;10390552;28;20229;-76
2022/08/13 14:56:51;;;;;;;2.03;1.80;;;31.20;14.40;;;;;;10387324;28;20225;-76
2022/08/13 15:01:56;;;;;;;2.10;2.00;;;31.30;14.90;;;;;;10392298;28;20225;-76
2022/08/13 15:07:01;;;;;;;1.97;1.87;;;31.30;14.50;;;;;;10392800;28;20734;-76
2022/08/13 15:12:05;;;;;;;2.50;2.23;;;31.30;14.00;;;;;;10387973;28;20236;-76
2022/08/13 15:17:16;;;;;;;1.80;1.70;;;31.20;14.20;;;;;;10391911;28;20241;-76
2022/08/13 15:22:23;;;;;;;2.20;1.90;;;31.20;14.00;;;;;;10394116;28;20645;-76
2022/08/13 15:27:30;;;;;;;1.83;1.73;;;31.20;13.80;;;;;;10390013;28;20311;-76
2022/08/13 15:32:37;;;;;;;2.10;2.00;;;31.20;13.70;;;;;;10389556;28;20676;-76
2022/08/13 15:37:43;;;;;;;1.90;1.80;;;31.10;13.80;;;;;;10388574;28;20864;-76
2022/08/13 15:43:04;;;;;;;2.00;1.90;;;31.10;13.60;;;;;;10392604;28;20249;-77
2022/08/13 15:48:13;;;;;;;1.90;1.80;;;31.10;13.50;;;;;;10386287;28;20225;-76
2022/08/13 15:53:25;;;;;;;2.00;1.80;;;31.10;13.50;;;;;;10390570;28;20304;-76
2022/08/13 15:58:29;;;;;;;1.80;1.70;;;31.20;13.20;;;;;;10387109;28;20609;-76
2022/08/13 16:03:36;;;;;;;2.13;1.93;;;31.20;13.30;;;;;;10389097;28;20287;-76
2022/08/13 16:08:42;;;;;;;3.50;1.90;;;31.20;13.30;;;;;;10398509;28;20312;-76
2022/08/13 16:13:55;;;;;;;1.87;1.77;;;31.30;13.00;;;;;;10393346;28;20320;-76
2022/08/13 16:18:59;;;;;;;2.17;1.97;;;31.30;13.10;;;;;;10396648;28;20308;-76
2022/08/13 16:24:09;;;;;;;2.23;1.97;;;31.30;12.80;;;;;;10391087;28;20224;-76
2022/08/13 16:29:14;;;;;;;2.00;1.90;;;31.30;12.40;;;;;;10396972;28;20283;-76
2022/08/13 16:34:18;;;;;;;2.07;1.97;;;31.30;12.70;;;;;;10398308;28;20236;-76
2022/08/13 16:39:23;;;;;;;1.83;1.73;;;31.30;12.90;;;;;;10397332;28;20316;-76
2022/08/13 16:44:27;;;;;;;1.70;1.60;;;31.30;12.40;;;;;;10397203;28;20280;-76
2022/08/13 16:49:42;;;;;;;1.50;1.40;;;31.20;12.70;;;;;;10391837;28;20233;-76
2022/08/13 16:54:54;;;;;;;1.77;1.67;;;31.20;12.50;;;;;;10389811;28;20222;-76
2022/08/13 16:59:58;;;;;;;1.80;1.70;;;31.10;12.30;;;;;;10401194;28;20681;-76
2022/08/13 17:10:30;;;;;;;1.50;1.40;;;31.00;13.30;;;;;;10398376;28;20256;-76
2022/08/13 17:15:34;;;;;;;2.43;1.80;;;30.90;12.70;;;;;;10392320;28;21078;-76
2022/08/13 17:20:43;;;;;;;1.90;1.80;;;30.90;12.80;;;;;;10391971;28;20230;-76
2022/08/13 17:25:48;;;;;;;1.70;1.60;;;30.80;12.90;;;;;;10393585;28;20221;-77
2022/08/13 17:31:00;;;;;;;2.13;2.00;;;30.80;14.20;;;;;;10392760;28;20279;-76
2022/08/13 17:36:07;;;;;;;2.00;1.90;;;30.70;14.00;;;;;;10392549;28;20218;-76
2022/08/13 17:41:17;;;;;;;1.80;1.70;;;30.70;13.80;;;;;;10393055;28;20234;-76
2022/08/13 17:46:21;;;;;;;2.23;1.83;;;30.60;13.90;;;;;;10394775;28;20750;-76
2022/08/13 17:51:32;;;;;;;2.00;1.90;;;30.60;14.00;;;;;;10393526;28;20242;-76
2022/08/13 17:56:37;;;;;;;3.10;1.70;;;30.50;14.10;;;;;;10393782;28;20234;-76
2022/08/13 18:01:41;;;;;;;1.53;1.53;;;30.40;14.40;;;;;;10396133;28;20280;-76
2022/08/13 18:06:48;;;;;;;1.80;1.70;;;30.30;14.60;;;;;;10393261;28;20660;-76
2022/08/13 18:11:55;;;;;;;1.73;1.63;;;30.30;14.90;;;;;;10384325;28;20229;-76
2022/08/13 18:17:02;;;;;;;1.80;1.70;;;30.20;15.20;;;;;;10391730;28;20696;-77
2022/08/13 18:22:26;;;;;;;1.90;1.80;;;30.10;15.30;;;;;;10390669;28;20226;-77
2022/08/13 18:27:34;;;;;;;1.80;1.70;;;30.00;16.20;;;;;;10398680;28;20229;-76
2022/08/13 18:32:59;;;;;;;1.80;1.70;;;29.90;15.90;;;;;;10393741;28;20716;-76
2022/08/13 18:38:04;;;;;;;2.00;1.90;;;29.90;16.10;;;;;;10386537;28;20237;-76
2022/08/13 18:43:18;;;;;;;2.20;1.90;;;29.70;16.00;;;;;;10394027;28;20236;-76
2022/08/13 18:48:22;;;;;;;2.00;1.90;;;29.50;16.80;;;;;;10391824;28;20238;-76
2022/08/13 18:53:36;;;;;;;1.80;1.70;;;29.40;16.40;;;;;;10392175;28;20225;-76
2022/08/13 18:58:48;;;;;;;2.10;2.00;;;29.20;16.40;;;;;;10393977;28;20730;-77
2022/08/13 19:03:57;;;;;;;2.00;1.90;;;29.00;16.60;;;;;;10390735;28;20230;-76
2022/08/13 19:09:06;;;;;;;2.00;1.90;;;28.80;16.70;;;;;;10383517;28;20595;-76
2022/08/13 19:14:13;;;;;;;2.50;2.30;;;28.60;16.90;;;;;;10389229;28;20728;-76
2022/08/13 19:19:17;;;;;;;2.20;2.10;;;28.40;17.00;;;;;;10392771;28;20731;-76
2022/08/13 19:24:21;;;;;;;2.40;2.30;;;28.20;16.80;;;;;;10393603;28;20238;-76
2022/08/13 19:29:35;;;;;;;3.43;2.90;;;28.00;16.90;;;;;;10390800;28;20589;-76
2022/08/13 19:34:41;;;;;;;4.50;4.10;;;27.80;17.20;;;;;;10384617;28;20218;-76
2022/08/13 19:39:45;;;;;;;3.57;3.30;;;27.50;17.30;;;;;;10390382;28;20319;-77
2022/08/13 19:45:08;;;;;;;3.20;3.00;;;27.30;17.70;;;;;;10391868;28;20692;-76
2022/08/13 19:50:20;;;;;;;3.17;2.87;;;27.00;18.10;;;;;;10387816;28;20532;-76
2022/08/13 19:55:26;;;;;;;3.13;2.93;;;26.90;18.20;;;;;;10389326;28;20239;-76
2022/08/13 20:00:50;;;;;;;2.70;2.50;;;26.80;18.10;;;;;;10386221;28;20237;-76
2022/08/13 20:05:56;;;;;;;2.20;2.10;;;26.60;18.20;;;;;;10392290;28;20699;-76
2022/08/13 20:11:01;;;;;;;2.50;2.30;;;26.50;18.10;;;;;;10390479;28;20607;-76
2022/08/13 20:16:07;;;;;;;2.20;2.10;;;26.40;18.20;;;;;;10389089;28;20226;-76
2022/08/13 20:21:18;;;;;;;2.20;2.10;;;26.20;19.10;;;;;;10387310;28;21125;-76
2022/08/13 20:26:22;;;;;;;2.30;2.20;;;25.90;18.70;;;;;;10387858;28;20249;-76
2022/08/13 20:31:30;;;;;;;3.27;2.17;;;25.70;18.90;;;;;;10392350;28;20320;-76
2022/08/13 20:36:49;;;;;;;2.80;2.60;;;25.40;19.30;;;;;;10387594;28;20217;-76
2022/08/13 20:41:54;;;;;;;2.90;2.70;;;25.20;19.20;;;;;;10390090;28;20709;-76
2022/08/13 20:46:59;;;;;;;2.60;2.40;;;25.00;19.70;;;;;;10390964;28;20238;-76
2022/08/13 20:52:22;;;;;;;5.43;2.70;;;24.90;19.90;;;;;;10397162;28;20316;-75
2022/08/13 20:57:37;;;;;;;3.93;3.17;;;24.70;19.80;;;;;;10392783;28;20229;-76
2022/08/13 21:02:54;;;;;;;3.17;2.97;;;24.50;20.10;;;;;;10399198;28;20230;-76
2022/08/13 21:07:58;;;;;;;3.53;2.67;;;24.20;21.20;;;;;;10396496;28;20225;-76
2022/08/13 21:13:04;;;;;;;3.33;2.90;;;24.00;20.70;;;;;;10393767;28;20228;-76
2022/08/13 21:18:14;;;;;;;3.93;3.63;;;23.80;21.20;;;;;;10394421;28;20237;-76
2022/08/13 21:23:18;;;;;;;3.50;3.20;;;23.70;21.60;;;;;;10397659;28;20304;-76
2022/08/13 21:28:21;;;;;;;3.03;2.83;;;23.60;21.20;;;;;;10395806;28;20749;-76
2022/08/13 21:33:46;;;;;;;3.00;2.80;;;23.60;21.20;;;;;;10394348;28;20232;-75
2022/08/13 21:38:51;;;;;;;2.47;2.37;;;23.40;21.50;;;;;;10391386;28;20234;-77
2022/08/13 21:43:54;;;;;;;3.13;2.93;;;23.30;21.40;;;;;;10396140;28;20217;-76
2022/08/13 21:48:58;;;;;;;3.70;2.90;;;23.10;21.80;;;;;;10395326;28;20288;-76
2022/08/13 21:54:03;;;;;;;2.90;2.70;;;23.10;22.20;;;;;;10393960;28;20221;-76
2022/08/13 21:59:06;;;;;;;3.40;3.17;;;23.10;21.90;;;;;;10391171;28;20348;-76
2022/08/13 22:04:14;;;;;;;3.00;2.80;;;23.00;22.20;;;;;;10394164;28;20236;-76
2022/08/13 22:09:17;;;;;;;3.17;2.90;;;23.00;22.30;;;;;;10388359;28;20234;-76
2022/08/13 22:14:20;;;;;;;2.87;2.67;;;23.00;22.30;;;;;;10394626;28;20242;-77
2022/08/13 22:19:25;;;;;;;3.30;3.10;;;23.00;22.30;;;;;;10388425;28;20240;-76
2022/08/13 22:24:28;;;;;;;3.27;3.07;;;22.90;23.10;;;;;;10397242;28;20227;-76
2022/08/13 22:34:57;;;;;;;3.00;2.80;;;22.50;23.50;;;;;;10388210;28;20222;-76
2022/08/13 22:40:00;;;;;;;4.07;3.33;;;22.40;23.70;;;;;;10391457;28;20222;-76
2022/08/13 22:45:12;;;;;;;3.73;3.43;;;22.30;23.30;;;;;;10396027;28;20224;-76
2022/08/13 22:50:18;;;;;;;3.30;3.10;;;22.30;23.50;;;;;;10393374;28;20240;-76
2022/08/13 22:55:21;;;;;;;3.63;3.33;;;22.10;23.80;;;;;;10392442;28;20226;-75
2022/08/13 23:00:45;;;;;;;3.27;3.07;;;22.00;23.70;;;;;;10390052;28;20244;-76
2022/08/13 23:05:52;;;;;;;3.77;3.47;;;21.90;23.60;;;;;;10388466;28;20237;-76
2022/08/13 23:11:03;;;;;;;3.07;2.87;;;21.70;24.50;;;;;;10389263;28;20245;-76
2022/08/13 23:16:06;;;;;;;3.20;2.73;;;21.60;23.90;;;;;;10393214;28;20225;-76
2022/08/13 23:21:23;;;;;;;2.60;2.40;;;21.50;23.90;;;;;;10393178;28;20643;-76
2022/08/13 23:26:26;;;;;;;3.90;2.97;;;21.50;24.40;;;;;;10392342;28;21044;-76
2022/08/13 23:31:32;;;;;;;3.00;2.80;;;21.50;24.20;;;;;;10390220;28;20229;-76
2022/08/13 23:36:38;;;;;;;3.40;3.10;;;21.50;24.80;;;;;;10392684;28;20580;-76
2022/08/13 23:41:41;;;;;;;3.33;3.10;;;21.50;25.00;;;;;;10389708;28;20230;-76
2022/08/13 23:46:45;;;;;;;3.00;2.80;;;21.50;24.70;;;;;;10392237;28;20226;-76
2022/08/13 23:51:57;;;;;;;3.10;2.67;;;21.50;24.60;;;;;;10385762;28;20233;-76
2022/08/13 23:57:00;;;;;;;3.60;3.30;;;21.40;25.00;;;;;;10389982;28;20256;-76
